logo tempoitalia

Diretta Meteo Mc Gregor, Stati Uniti (USA)lunedì 31 agosto ore 00:56

Mappa
Sereno 29 °C Sereno 24 Ore: T.min 24 T.max 38
Ponente Sud Km/h 14.8 Punto di rugiada: 21 °C Umidità: 62% Visibilità: 10 Km
Il sole sorge alle: 07:04 Il sole tramonta alle: 19:54
31 Agosto 2026 00:56 tempo osservato: Sereno Sereno 29 62 1015 vento: Nord S 14.8
30 Agosto 2026 23:56 tempo osservato: Sereno Sereno 29 54 1015 vento: Nord S 16.7
30 Agosto 2026 22:56 tempo osservato: Sereno Sereno 29 51 1015 vento: Nord S/SE 14.8
30 Agosto 2026 21:56 tempo osservato: Sereno Sereno 29 51 1014 vento: Nord S/SE 7.4
30 Agosto 2026 20:56 tempo osservato: Sereno Sereno 31 43 1013 vento: Nord S/SE 9.3
30 Agosto 2026 19:56 tempo osservato: Sereno Sereno 34 36 1013 vento: Nord SE 14.8
30 Agosto 2026 18:56 tempo osservato: Sereno Sereno 36 32 1013 vento: Nord SE 14.8
30 Agosto 2026 17:56 tempo osservato: Sereno Sereno 36 32 1013 vento: Nord S 20.3
30 Agosto 2026 16:56 tempo osservato: Poco Nuvoloso Poco Nuvoloso 38 31 1013 vento: Nord S 25.9
30 Agosto 2026 15:56 tempo osservato: Sereno Sereno 38 29 1014 vento: Nord S 13
30 Agosto 2026 14:56 tempo osservato: Sereno Sereno 38 29 1015 vento: Nord S/SE 14.8
30 Agosto 2026 13:56 tempo osservato: Sereno Sereno 37 30 1016 vento: Nord S 13
30 Agosto 2026 12:56 tempo osservato: Sereno Sereno 35 39 1016 vento: Nord S/SE 14.8
30 Agosto 2026 11:56 tempo osservato: Sereno Sereno 34 46 1017 vento: Nord S 14.8
30 Agosto 2026 10:56 tempo osservato: Sereno Sereno 33 49 1018 vento: Nord S/SE 18.5
30 Agosto 2026 09:56 tempo osservato: Sereno Sereno 31 58 1018 vento: Nord S 18.5
30 Agosto 2026 08:56 tempo osservato: Poco Nuvoloso Poco Nuvoloso 27 74 1017 vento: Nord S/SE 9.3
30 Agosto 2026 07:56 tempo osservato: Sereno Sereno 25 83 1017 vento: Nord S 9.3
30 Agosto 2026 06:56 tempo osservato: Sereno Sereno 24 83 1016 vento: Nord N 5.5
30 Agosto 2026 05:56 tempo osservato: Sereno Sereno 26 78 1016 vento: Nord S 11.1
30 Agosto 2026 04:56 tempo osservato: Sereno Sereno 26 78 1016 vento: Nord S 9.3
30 Agosto 2026 03:56 tempo osservato: Sereno Sereno 27 74 1016 vento: Nord S 11.1
30 Agosto 2026 02:56 tempo osservato: Sereno Sereno 28 69 1015 vento: Nord S 16.7
30 Agosto 2026 01:56 tempo osservato: Sereno Sereno 28 69 1016 vento: Nord S 14.8